sensor_id;sensor_type;location;lat;lon;timestamp;temperature;humidity
152;DHT22;68;48.792;9.164;2024-03-07T00:01:51;6.10;21.40
152;DHT22;68;48.792;9.164;2024-03-07T00:04:19;6.00;22.70
152;DHT22;68;48.792;9.164;2024-03-07T00:06:45;6.10;23.70
152;DHT22;68;48.792;9.164;2024-03-07T00:09:14;6.00;27.70
152;DHT22;68;48.792;9.164;2024-03-07T00:11:41;6.10;26.70
152;DHT22;68;48.792;9.164;2024-03-07T00:14:08;6.30;21.40
152;DHT22;68;48.792;9.164;2024-03-07T00:16:35;6.50;25.20
152;DHT22;68;48.792;9.164;2024-03-07T00:19:02;6.50;34.20
152;DHT22;68;48.792;9.164;2024-03-07T00:21:30;6.20;44.80
152;DHT22;68;48.792;9.164;2024-03-07T00:23:57;6.00;48.00
152;DHT22;68;48.792;9.164;2024-03-07T00:26:26;5.90;46.30
152;DHT22;68;48.792;9.164;2024-03-07T00:28:53;5.80;43.80
152;DHT22;68;48.792;9.164;2024-03-07T00:31:19;5.80;42.20
152;DHT22;68;48.792;9.164;2024-03-07T00:33:47;5.80;42.60
152;DHT22;68;48.792;9.164;2024-03-07T00:36:13;5.80;46.80
152;DHT22;68;48.792;9.164;2024-03-07T00:38:42;5.70;53.10
152;DHT22;68;48.792;9.164;2024-03-07T00:41:09;5.70;55.60
152;DHT22;68;48.792;9.164;2024-03-07T00:43:37;5.70;61.70
152;DHT22;68;48.792;9.164;2024-03-07T00:46:03;5.70;62.50
152;DHT22;68;48.792;9.164;2024-03-07T00:48:32;5.70;65.70
152;DHT22;68;48.792;9.164;2024-03-07T00:50:58;5.60;64.60
152;DHT22;68;48.792;9.164;2024-03-07T00:53:25;5.60;64.10
152;DHT22;68;48.792;9.164;2024-03-07T00:55:53;5.60;69.00
152;DHT22;68;48.792;9.164;2024-03-07T00:58:20;5.60;69.10
152;DHT22;68;48.792;9.164;2024-03-07T01:00:47;5.60;71.90
152;DHT22;68;48.792;9.164;2024-03-07T01:03:14;5.50;76.60
152;DHT22;68;48.792;9.164;2024-03-07T01:05:43;5.50;76.90
152;DHT22;68;48.792;9.164;2024-03-07T01:08:10;5.50;80.30
152;DHT22;68;48.792;9.164;2024-03-07T01:10:37;5.50;76.70
152;DHT22;68;48.792;9.164;2024-03-07T01:13:05;5.50;79.90
152;DHT22;68;48.792;9.164;2024-03-07T01:15:34;5.50;74.80
152;DHT22;68;48.792;9.164;2024-03-07T01:18:02;5.60;65.00
152;DHT22;68;48.792;9.164;2024-03-07T01:20:28;5.80;64.90
152;DHT22;68;48.792;9.164;2024-03-07T01:25:22;5.30;76.50
152;DHT22;68;48.792;9.164;2024-03-07T01:27:49;5.20;79.00
152;DHT22;68;48.792;9.164;2024-03-07T01:30:18;5.10;81.20
152;DHT22;68;48.792;9.164;2024-03-07T01:32:44;5.10;77.70
152;DHT22;68;48.792;9.164;2024-03-07T01:35:11;5.00;75.40
152;DHT22;68;48.792;9.164;2024-03-07T01:37:39;5.00;74.40
152;DHT22;68;48.792;9.164;2024-03-07T01:40:07;4.90;72.60
152;DHT22;68;48.792;9.164;2024-03-07T01:42:34;4.90;74.60
152;DHT22;68;48.792;9.164;2024-03-07T01:45:01;4.80;76.50
152;DHT22;68;48.792;9.164;2024-03-07T01:47:29;4.80;73.80
152;DHT22;68;48.792;9.164;2024-03-07T01:49:56;4.80;74.10
152;DHT22;68;48.792;9.164;2024-03-07T01:52:24;4.70;72.20
152;DHT22;68;48.792;9.164;2024-03-07T01:54:52;4.70;74.40
152;DHT22;68;48.792;9.164;2024-03-07T01:57:21;4.60;76.20
152;DHT22;68;48.792;9.164;2024-03-07T01:59:48;4.60;76.00
152;DHT22;68;48.792;9.164;2024-03-07T02:02:16;4.50;74.30
152;DHT22;68;48.792;9.164;2024-03-07T02:04:45;4.50;74.30
152;DHT22;68;48.792;9.164;2024-03-07T02:07:12;4.40;73.20
152;DHT22;68;48.792;9.164;2024-03-07T02:09:39;4.40;71.70
152;DHT22;68;48.792;9.164;2024-03-07T02:12:06;4.40;68.00
152;DHT22;68;48.792;9.164;2024-03-07T02:14:34;4.30;76.40
152;DHT22;68;48.792;9.164;2024-03-07T02:17:01;4.30;80.30
152;DHT22;68;48.792;9.164;2024-03-07T02:19:28;4.30;84.20
152;DHT22;68;48.792;9.164;2024-03-07T02:21:56;4.20;84.10
152;DHT22;68;48.792;9.164;2024-03-07T02:24:22;4.20;89.20
152;DHT22;68;48.792;9.164;2024-03-07T02:26:49;4.10;88.80
152;DHT22;68;48.792;9.164;2024-03-07T02:29:17;4.00;88.60
152;DHT22;68;48.792;9.164;2024-03-07T02:31:45;4.00;88.40
152;DHT22;68;48.792;9.164;2024-03-07T02:34:12;4.00;88.90
152;DHT22;68;48.792;9.164;2024-03-07T02:36:38;4.00;89.70
152;DHT22;68;48.792;9.164;2024-03-07T02:39:06;3.90;88.50
152;DHT22;68;48.792;9.164;2024-03-07T02:41:33;3.90;85.70
152;DHT22;68;48.792;9.164;2024-03-07T02:44:00;3.90;88.80
152;DHT22;68;48.792;9.164;2024-03-07T02:46:29;3.80;89.20
152;DHT22;68;48.792;9.164;2024-03-07T02:48:57;3.80;88.80
152;DHT22;68;48.792;9.164;2024-03-07T02:51:23;3.90;78.20
152;DHT22;68;48.792;9.164;2024-03-07T02:53:50;3.70;78.60
152;DHT22;68;48.792;9.164;2024-03-07T02:56:19;3.50;73.30
152;DHT22;68;48.792;9.164;2024-03-07T02:58:45;3.60;63.70
152;DHT22;68;48.792;9.164;2024-03-07T03:01:12;3.50;61.90
152;DHT22;68;48.792;9.164;2024-03-07T03:03:39;3.50;73.60
152;DHT22;68;48.792;9.164;2024-03-07T03:06:07;3.50;73.80
152;DHT22;68;48.792;9.164;2024-03-07T03:08:34;3.40;70.70
152;DHT22;68;48.792;9.164;2024-03-07T03:11:01;3.50;56.80
152;DHT22;68;48.792;9.164;2024-03-07T03:13:30;3.40;58.30
152;DHT22;68;48.792;9.164;2024-03-07T03:15:57;3.30;66.50
152;DHT22;68;48.792;9.164;2024-03-07T03:18:24;3.20;67.30
152;DHT22;68;48.792;9.164;2024-03-07T03:20:51;3.30;56.00
152;DHT22;68;48.792;9.164;2024-03-07T03:23:18;3.30;52.00
152;DHT22;68;48.792;9.164;2024-03-07T03:25:46;3.20;57.30
152;DHT22;68;48.792;9.164;2024-03-07T03:28:13;3.20;50.70
152;DHT22;68;48.792;9.164;2024-03-07T03:30:41;3.20;47.20
152;DHT22;68;48.792;9.164;2024-03-07T03:33:09;3.20;49.10
152;DHT22;68;48.792;9.164;2024-03-07T03:35:36;3.20;47.20
152;DHT22;68;48.792;9.164;2024-03-07T03:38:03;3.10;50.90
152;DHT22;68;48.792;9.164;2024-03-07T03:40:30;3.00;54.40
152;DHT22;68;48.792;9.164;2024-03-07T03:42:57;3.10;51.50
152;DHT22;68;48.792;9.164;2024-03-07T03:45:23;3.10;61.60
152;DHT22;68;48.792;9.164;2024-03-07T03:47:52;3.20;60.80
152;DHT22;68;48.792;9.164;2024-03-07T03:50:19;3.10;67.30
152;DHT22;68;48.792;9.164;2024-03-07T03:52:48;3.10;76.70
152;DHT22;68;48.792;9.164;2024-03-07T03:55:15;3.10;75.70
152;DHT22;68;48.792;9.164;2024-03-07T03:57:43;3.10;82.60
152;DHT22;68;48.792;9.164;2024-03-07T04:00:13;3.10;86.40
152;DHT22;68;48.792;9.164;2024-03-07T04:02:40;3.10;87.00
152;DHT22;68;48.792;9.164;2024-03-07T04:05:10;3.10;91.60
152;DHT22;68;48.792;9.164;2024-03-07T04:07:37;3.20;90.70
152;DHT22;68;48.792;9.164;2024-03-07T04:10:05;3.10;91.40
152;DHT22;68;48.792;9.164;2024-03-07T04:12:33;3.10;90.90
152;DHT22;68;48.792;9.164;2024-03-07T04:17:29;3.00;90.80
152;DHT22;68;48.792;9.164;2024-03-07T04:19:56;3.00;91.40
152;DHT22;68;48.792;9.164;2024-03-07T04:22:25;3.10;91.20
152;DHT22;68;48.792;9.164;2024-03-07T04:24:52;3.10;91.50
152;DHT22;68;48.792;9.164;2024-03-07T04:27:21;3.10;91.30
152;DHT22;68;48.792;9.164;2024-03-07T04:29:47;3.10;92.20
152;DHT22;68;48.792;9.164;2024-03-07T04:32:15;3.10;90.90
152;DHT22;68;48.792;9.164;2024-03-07T04:34:43;3.00;90.40
152;DHT22;68;48.792;9.164;2024-03-07T04:37:09;3.00;89.50
152;DHT22;68;48.792;9.164;2024-03-07T04:39:38;3.00;89.10
152;DHT22;68;48.792;9.164;2024-03-07T04:42:06;3.00;90.80
152;DHT22;68;48.792;9.164;2024-03-07T04:44:34;3.00;92.10
152;DHT22;68;48.792;9.164;2024-03-07T04:47:02;3.00;91.70
152;DHT22;68;48.792;9.164;2024-03-07T04:49:30;2.90;90.20
152;DHT22;68;48.792;9.164;2024-03-07T04:51:59;2.90;90.60
152;DHT22;68;48.792;9.164;2024-03-07T04:54:27;2.80;89.80
152;DHT22;68;48.792;9.164;2024-03-07T04:56:56;2.80;89.70
152;DHT22;68;48.792;9.164;2024-03-07T04:59:22;2.80;87.50
152;DHT22;68;48.792;9.164;2024-03-07T05:01:50;2.70;83.20
152;DHT22;68;48.792;9.164;2024-03-07T05:04:17;2.60;77.40
152;DHT22;68;48.792;9.164;2024-03-07T05:06:45;2.50;75.90
152;DHT22;68;48.792;9.164;2024-03-07T05:09:14;2.50;72.90
152;DHT22;68;48.792;9.164;2024-03-07T05:11:49;2.40;71.80
152;DHT22;68;48.792;9.164;2024-03-07T05:14:19;2.50;65.50
152;DHT22;68;48.792;9.164;2024-03-07T05:16:46;2.40;67.00
152;DHT22;68;48.792;9.164;2024-03-07T05:19:27;2.30;68.10
152;DHT22;68;48.792;9.164;2024-03-07T05:21:55;2.30;69.30
152;DHT22;68;48.792;9.164;2024-03-07T05:24:22;2.30;68.80
152;DHT22;68;48.792;9.164;2024-03-07T05:26:48;2.30;68.60
152;DHT22;68;48.792;9.164;2024-03-07T05:29:16;2.30;74.70
152;DHT22;68;48.792;9.164;2024-03-07T05:31:45;2.20;71.00
152;DHT22;68;48.792;9.164;2024-03-07T05:34:13;2.10;70.10
152;DHT22;68;48.792;9.164;2024-03-07T05:36:40;2.10;69.40
152;DHT22;68;48.792;9.164;2024-03-07T05:39:10;2.10;71.80
152;DHT22;68;48.792;9.164;2024-03-07T05:41:37;2.10;75.10
152;DHT22;68;48.792;9.164;2024-03-07T05:44:04;2.10;75.60
152;DHT22;68;48.792;9.164;2024-03-07T05:46:35;2.10;68.40
152;DHT22;68;48.792;9.164;2024-03-07T05:49:04;2.00;68.90
152;DHT22;68;48.792;9.164;2024-03-07T05:51:31;1.90;69.10
152;DHT22;68;48.792;9.164;2024-03-07T05:53:58;1.90;68.50
152;DHT22;68;48.792;9.164;2024-03-07T05:56:25;1.80;67.10
152;DHT22;68;48.792;9.164;2024-03-07T05:58:52;1.80;66.70
152;DHT22;68;48.792;9.164;2024-03-07T06:01:19;1.80;66.50
152;DHT22;68;48.792;9.164;2024-03-07T06:03:46;1.80;64.50
152;DHT22;68;48.792;9.164;2024-03-07T06:06:15;1.80;60.10
152;DHT22;68;48.792;9.164;2024-03-07T06:08:42;1.70;61.00
152;DHT22;68;48.792;9.164;2024-03-07T06:11:10;1.70;61.40
152;DHT22;68;48.792;9.164;2024-03-07T06:13:38;1.60;61.80
152;DHT22;68;48.792;9.164;2024-03-07T06:16:05;1.60;62.10
152;DHT22;68;48.792;9.164;2024-03-07T06:18:34;1.60;65.30
152;DHT22;68;48.792;9.164;2024-03-07T06:21:00;1.60;68.60
152;DHT22;68;48.792;9.164;2024-03-07T06:23:31;1.70;74.30
152;DHT22;68;48.792;9.164;2024-03-07T06:25:58;1.70;74.40
152;DHT22;68;48.792;9.164;2024-03-07T06:28:26;1.70;74.10
152;DHT22;68;48.792;9.164;2024-03-07T06:30:54;1.70;75.30
152;DHT22;68;48.792;9.164;2024-03-07T06:33:21;1.70;74.40
152;DHT22;68;48.792;9.164;2024-03-07T06:35:48;1.70;76.30
152;DHT22;68;48.792;9.164;2024-03-07T06:38:17;1.80;75.60
152;DHT22;68;48.792;9.164;2024-03-07T06:40:45;1.80;76.50
152;DHT22;68;48.792;9.164;2024-03-07T06:43:12;1.80;79.30
152;DHT22;68;48.792;9.164;2024-03-07T06:45:39;1.80;80.60
152;DHT22;68;48.792;9.164;2024-03-07T06:48:07;1.80;78.80
152;DHT22;68;48.792;9.164;2024-03-07T06:50:35;1.80;81.90
152;DHT22;68;48.792;9.164;2024-03-07T06:53:02;1.80;82.50
152;DHT22;68;48.792;9.164;2024-03-07T06:55:29;1.90;80.90
152;DHT22;68;48.792;9.164;2024-03-07T06:57:57;2.00;80.60
152;DHT22;68;48.792;9.164;2024-03-07T07:00:24;2.00;80.70
152;DHT22;68;48.792;9.164;2024-03-07T07:02:52;2.10;84.40
152;DHT22;68;48.792;9.164;2024-03-07T07:05:20;2.10;86.10
152;DHT22;68;48.792;9.164;2024-03-07T07:07:47;2.20;86.70
152;DHT22;68;48.792;9.164;2024-03-07T07:10:14;2.20;91.40
152;DHT22;68;48.792;9.164;2024-03-07T07:12:44;2.30;88.30
152;DHT22;68;48.792;9.164;2024-03-07T07:15:13;2.30;91.80
152;DHT22;68;48.792;9.164;2024-03-07T07:17:41;2.30;91.50
152;DHT22;68;48.792;9.164;2024-03-07T07:20:11;2.40;92.30
152;DHT22;68;48.792;9.164;2024-03-07T07:22:40;2.40;94.50
152;DHT22;68;48.792;9.164;2024-03-07T07:25:08;2.40;92.70
152;DHT22;68;48.792;9.164;2024-03-07T07:27:40;2.50;93.50
152;DHT22;68;48.792;9.164;2024-03-07T07:30:09;2.70;90.80
152;DHT22;68;48.792;9.164;2024-03-07T07:32:38;2.60;93.40
152;DHT22;68;48.792;9.164;2024-03-07T07:35:06;2.60;96.30
152;DHT22;68;48.792;9.164;2024-03-07T07:37:37;2.70;95.90
152;DHT22;68;48.792;9.164;2024-03-07T07:40:04;2.70;96.30
152;DHT22;68;48.792;9.164;2024-03-07T07:42:33;2.60;96.90
152;DHT22;68;48.792;9.164;2024-03-07T07:45:00;2.60;97.80
152;DHT22;68;48.792;9.164;2024-03-07T07:47:27;2.60;96.00
152;DHT22;68;48.792;9.164;2024-03-07T07:49:55;2.50;98.70
152;DHT22;68;48.792;9.164;2024-03-07T07:52:22;2.70;94.80
152;DHT22;68;48.792;9.164;2024-03-07T07:54:49;2.90;95.50
152;DHT22;68;48.792;9.164;2024-03-07T07:57:16;2.70;96.20
152;DHT22;68;48.792;9.164;2024-03-07T07:59:45;2.90;95.40
152;DHT22;68;48.792;9.164;2024-03-07T08:02:12;3.00;96.10
152;DHT22;68;48.792;9.164;2024-03-07T08:04:38;2.90;96.50
152;DHT22;68;48.792;9.164;2024-03-07T08:07:06;2.90;95.00
152;DHT22;68;48.792;9.164;2024-03-07T08:09:34;3.10;94.60
152;DHT22;68;48.792;9.164;2024-03-07T08:12:00;3.20;97.50
152;DHT22;68;48.792;9.164;2024-03-07T08:14:28;3.20;95.80
152;DHT22;68;48.792;9.164;2024-03-07T08:16:55;3.20;96.40
152;DHT22;68;48.792;9.164;2024-03-07T08:19:22;3.40;97.20
152;DHT22;68;48.792;9.164;2024-03-07T08:21:48;3.00;97.70
152;DHT22;68;48.792;9.164;2024-03-07T08:24:17;2.80;95.90
152;DHT22;68;48.792;9.164;2024-03-07T08:26:43;3.00;94.00
152;DHT22;68;48.792;9.164;2024-03-07T08:29:12;2.70;96.60
152;DHT22;68;48.792;9.164;2024-03-07T08:31:39;2.50;94.40
152;DHT22;68;48.792;9.164;2024-03-07T08:34:05;2.50;91.90
152;DHT22;68;48.792;9.164;2024-03-07T08:36:32;2.80;88.50
152;DHT22;68;48.792;9.164;2024-03-07T08:39:00;2.80;93.60
152;DHT22;68;48.792;9.164;2024-03-07T08:41:30;2.80;93.50
152;DHT22;68;48.792;9.164;2024-03-07T08:43:56;2.80;95.70
152;DHT22;68;48.792;9.164;2024-03-07T08:46:23;2.90;94.40
152;DHT22;68;48.792;9.164;2024-03-07T08:48:50;3.10;95.00
152;DHT22;68;48.792;9.164;2024-03-07T08:51:18;3.30;97.50
152;DHT22;68;48.792;9.164;2024-03-07T08:53:44;3.40;97.80
152;DHT22;68;48.792;9.164;2024-03-07T08:56:11;3.50;98.60
152;DHT22;68;48.792;9.164;2024-03-07T08:58:39;3.80;98.00
152;DHT22;68;48.792;9.164;2024-03-07T09:01:06;3.80;98.20
152;DHT22;68;48.792;9.164;2024-03-07T09:03:33;3.40;97.90
152;DHT22;68;48.792;9.164;2024-03-07T09:06:00;3.30;97.30
152;DHT22;68;48.792;9.164;2024-03-07T09:08:29;3.40;98.50
152;DHT22;68;48.792;9.164;2024-03-07T09:10:55;3.50;98.10
152;DHT22;68;48.792;9.164;2024-03-07T09:13:23;3.40;98.10
152;DHT22;68;48.792;9.164;2024-03-07T09:15:51;3.50;96.50
152;DHT22;68;48.792;9.164;2024-03-07T09:18:18;3.80;98.00
152;DHT22;68;48.792;9.164;2024-03-07T09:20:44;3.70;98.20
152;DHT22;68;48.792;9.164;2024-03-07T09:23:11;3.90;96.20
152;DHT22;68;48.792;9.164;2024-03-07T09:25:38;3.90;97.90
152;DHT22;68;48.792;9.164;2024-03-07T09:28:05;3.80;98.40
152;DHT22;68;48.792;9.164;2024-03-07T09:30:32;3.70;96.70
152;DHT22;68;48.792;9.164;2024-03-07T09:33:01;3.70;97.70
152;DHT22;68;48.792;9.164;2024-03-07T09:35:29;4.00;96.50
152;DHT22;68;48.792;9.164;2024-03-07T09:37:57;4.40;98.00
152;DHT22;68;48.792;9.164;2024-03-07T09:40:24;4.50;97.70
152;DHT22;68;48.792;9.164;2024-03-07T09:42:51;4.50;97.90
152;DHT22;68;48.792;9.164;2024-03-07T09:45:20;4.20;97.90
152;DHT22;68;48.792;9.164;2024-03-07T09:47:51;4.20;98.10
152;DHT22;68;48.792;9.164;2024-03-07T09:50:21;4.00;98.10
152;DHT22;68;48.792;9.164;2024-03-07T09:52:49;4.00;97.70
152;DHT22;68;48.792;9.164;2024-03-07T09:55:16;4.20;98.30
152;DHT22;68;48.792;9.164;2024-03-07T09:57:46;4.10;98.00
152;DHT22;68;48.792;9.164;2024-03-07T10:00:13;4.30;98.20
152;DHT22;68;48.792;9.164;2024-03-07T10:02:53;4.30;97.90
152;DHT22;68;48.792;9.164;2024-03-07T10:05:23;4.80;98.10
152;DHT22;68;48.792;9.164;2024-03-07T10:07:51;5.10;97.10
152;DHT22;68;48.792;9.164;2024-03-07T10:10:18;5.30;96.90
152;DHT22;68;48.792;9.164;2024-03-07T10:12:45;5.50;96.20
152;DHT22;68;48.792;9.164;2024-03-07T10:15:12;5.40;97.10
152;DHT22;68;48.792;9.164;2024-03-07T10:17:39;4.90;95.80
152;DHT22;68;48.792;9.164;2024-03-07T10:20:07;5.10;97.90
152;DHT22;68;48.792;9.164;2024-03-07T10:22:40;5.70;97.70
152;DHT22;68;48.792;9.164;2024-03-07T10:25:08;6.10;97.10
152;DHT22;68;48.792;9.164;2024-03-07T10:27:36;6.50;94.50
152;DHT22;68;48.792;9.164;2024-03-07T10:30:05;6.70;92.40
152;DHT22;68;48.792;9.164;2024-03-07T10:32:33;6.50;93.60
152;DHT22;68;48.792;9.164;2024-03-07T10:35:01;6.90;92.50
152;DHT22;68;48.792;9.164;2024-03-07T10:37:29;6.70;92.20
152;DHT22;68;48.792;9.164;2024-03-07T10:39:58;6.90;90.60
152;DHT22;68;48.792;9.164;2024-03-07T10:42:28;6.50;90.10
152;DHT22;68;48.792;9.164;2024-03-07T10:45:03;6.70;92.60
152;DHT22;68;48.792;9.164;2024-03-07T10:47:31;6.80;91.50
152;DHT22;68;48.792;9.164;2024-03-07T10:50:08;6.80;90.90
152;DHT22;68;48.792;9.164;2024-03-07T10:52:46;6.30;92.50
152;DHT22;68;48.792;9.164;2024-03-07T10:55:24;5.80;93.90
152;DHT22;68;48.792;9.164;2024-03-07T10:58:01;6.00;95.20
152;DHT22;68;48.792;9.164;2024-03-07T11:00:30;6.30;93.30
152;DHT22;68;48.792;9.164;2024-03-07T11:03:01;5.90;93.60
152;DHT22;68;48.792;9.164;2024-03-07T11:05:33;5.60;95.50
152;DHT22;68;48.792;9.164;2024-03-07T11:08:01;5.70;94.80
152;DHT22;68;48.792;9.164;2024-03-07T11:10:35;5.50;95.40
152;DHT22;68;48.792;9.164;2024-03-07T11:13:03;5.60;95.70
152;DHT22;68;48.792;9.164;2024-03-07T11:15:32;5.50;95.20
152;DHT22;68;48.792;9.164;2024-03-07T11:18:00;5.50;96.20
152;DHT22;68;48.792;9.164;2024-03-07T11:20:33;5.90;96.50
152;DHT22;68;48.792;9.164;2024-03-07T11:23:00;6.00;93.70
152;DHT22;68;48.792;9.164;2024-03-07T11:25:28;5.70;94.80
152;DHT22;68;48.792;9.164;2024-03-07T11:27:58;5.70;96.20
152;DHT22;68;48.792;9.164;2024-03-07T11:30:25;5.80;95.90
152;DHT22;68;48.792;9.164;2024-03-07T11:32:53;5.90;95.70
152;DHT22;68;48.792;9.164;2024-03-07T11:35:21;6.20;96.20
152;DHT22;68;48.792;9.164;2024-03-07T11:37:58;6.70;93.90
152;DHT22;68;48.792;9.164;2024-03-07T11:40:44;6.50;92.80
152;DHT22;68;48.792;9.164;2024-03-07T11:43:13;6.10;94.60
152;DHT22;68;48.792;9.164;2024-03-07T11:45:40;6.50;95.90
152;DHT22;68;48.792;9.164;2024-03-07T11:48:11;6.90;92.70
152;DHT22;68;48.792;9.164;2024-03-07T11:50:39;6.90;92.20
152;DHT22;68;48.792;9.164;2024-03-07T11:53:07;7.20;91.60
152;DHT22;68;48.792;9.164;2024-03-07T11:55:34;7.20;91.60
152;DHT22;68;48.792;9.164;2024-03-07T11:58:07;6.90;92.80
152;DHT22;68;48.792;9.164;2024-03-07T12:00:35;7.00;92.30
152;DHT22;68;48.792;9.164;2024-03-07T12:03:08;6.90;91.60
152;DHT22;68;48.792;9.164;2024-03-07T12:05:39;6.90;92.60
152;DHT22;68;48.792;9.164;2024-03-07T12:08:06;6.60;94.20
152;DHT22;68;48.792;9.164;2024-03-07T12:10:35;6.70;91.90
152;DHT22;68;48.792;9.164;2024-03-07T12:13:05;6.60;92.00
152;DHT22;68;48.792;9.164;2024-03-07T12:15:32;6.70;92.00
152;DHT22;68;48.792;9.164;2024-03-07T12:18:02;6.70;93.50
152;DHT22;68;48.792;9.164;2024-03-07T12:20:35;7.20;91.20
152;DHT22;68;48.792;9.164;2024-03-07T12:23:03;7.30;89.60
152;DHT22;68;48.792;9.164;2024-03-07T12:25:31;7.20;90.60
152;DHT22;68;48.792;9.164;2024-03-07T12:28:06;7.20;90.50
152;DHT22;68;48.792;9.164;2024-03-07T12:30:47;7.50;89.80
152;DHT22;68;48.792;9.164;2024-03-07T12:33:18;7.30;91.00
152;DHT22;68;48.792;9.164;2024-03-07T12:35:46;7.00;91.70
152;DHT22;68;48.792;9.164;2024-03-07T12:38:13;7.00;91.10
152;DHT22;68;48.792;9.164;2024-03-07T12:40:42;6.80;91.00
152;DHT22;68;48.792;9.164;2024-03-07T12:43:16;7.10;92.40
152;DHT22;68;48.792;9.164;2024-03-07T12:45:45;7.30;90.90
152;DHT22;68;48.792;9.164;2024-03-07T12:48:12;7.10;90.60
152;DHT22;68;48.792;9.164;2024-03-07T12:50:41;7.00;90.10
152;DHT22;68;48.792;9.164;2024-03-07T12:53:08;7.00;91.80
152;DHT22;68;48.792;9.164;2024-03-07T12:55:38;7.00;90.40
152;DHT22;68;48.792;9.164;2024-03-07T12:58:07;7.20;92.00
152;DHT22;68;48.792;9.164;2024-03-07T13:00:35;7.20;90.80
152;DHT22;68;48.792;9.164;2024-03-07T13:03:02;7.10;91.30
152;DHT22;68;48.792;9.164;2024-03-07T13:05:28;6.90;90.50
152;DHT22;68;48.792;9.164;2024-03-07T13:07:57;7.20;89.40
152;DHT22;68;48.792;9.164;2024-03-07T13:10:23;7.50;89.70
152;DHT22;68;48.792;9.164;2024-03-07T13:12:50;7.40;90.60
152;DHT22;68;48.792;9.164;2024-03-07T13:15:18;7.60;88.80
152;DHT22;68;48.792;9.164;2024-03-07T13:17:48;7.50;87.90
152;DHT22;68;48.792;9.164;2024-03-07T13:20:19;7.60;89.60
152;DHT22;68;48.792;9.164;2024-03-07T13:22:52;7.40;88.80
152;DHT22;68;48.792;9.164;2024-03-07T13:25:22;7.40;88.20
152;DHT22;68;48.792;9.164;2024-03-07T13:27:56;7.30;88.50
152;DHT22;68;48.792;9.164;2024-03-07T13:30:25;7.10;88.80
152;DHT22;68;48.792;9.164;2024-03-07T13:32:54;7.10;89.90
152;DHT22;68;48.792;9.164;2024-03-07T13:35:21;7.20;89.10
152;DHT22;68;48.792;9.164;2024-03-07T13:37:49;7.10;90.00
152;DHT22;68;48.792;9.164;2024-03-07T13:40:16;6.90;89.40
152;DHT22;68;48.792;9.164;2024-03-07T13:42:52;6.90;90.60
152;DHT22;68;48.792;9.164;2024-03-07T13:45:20;7.00;90.60
152;DHT22;68;48.792;9.164;2024-03-07T13:47:48;7.00;90.70
152;DHT22;68;48.792;9.164;2024-03-07T13:50:16;7.10;90.80
152;DHT22;68;48.792;9.164;2024-03-07T13:52:45;7.10;90.50
152;DHT22;68;48.792;9.164;2024-03-07T13:55:32;7.00;88.40
152;DHT22;68;48.792;9.164;2024-03-07T13:58:04;7.00;90.00
152;DHT22;68;48.792;9.164;2024-03-07T14:00:44;7.10;89.60
152;DHT22;68;48.792;9.164;2024-03-07T14:03:41;7.10;89.70
152;DHT22;68;48.792;9.164;2024-03-07T14:06:26;7.50;89.10
152;DHT22;68;48.792;9.164;2024-03-07T14:09:13;7.80;88.90
152;DHT22;68;48.792;9.164;2024-03-07T14:12:11;7.40;88.60
152;DHT22;68;48.792;9.164;2024-03-07T14:21:44;7.20;91.20
152;DHT22;68;48.792;9.164;2024-03-07T14:24:59;7.20;91.70
152;DHT22;68;48.792;9.164;2024-03-07T14:27:34;7.10;90.30
152;DHT22;68;48.792;9.164;2024-03-07T14:30:22;7.20;89.10
152;DHT22;68;48.792;9.164;2024-03-07T14:32:53;7.20;89.40
152;DHT22;68;48.792;9.164;2024-03-07T14:35:30;7.30;89.70
152;DHT22;68;48.792;9.164;2024-03-07T14:38:06;7.30;89.40
152;DHT22;68;48.792;9.164;2024-03-07T14:40:49;7.50;89.40
152;DHT22;68;48.792;9.164;2024-03-07T14:43:18;7.60;89.10
152;DHT22;68;48.792;9.164;2024-03-07T14:45:47;7.80;86.70
152;DHT22;68;48.792;9.164;2024-03-07T14:48:17;7.70;87.60
152;DHT22;68;48.792;9.164;2024-03-07T14:50:45;8.10;86.30
152;DHT22;68;48.792;9.164;2024-03-07T14:53:13;7.60;86.40
152;DHT22;68;48.792;9.164;2024-03-07T14:55:42;7.40;86.70
152;DHT22;68;48.792;9.164;2024-03-07T14:58:09;7.40;87.90
152;DHT22;68;48.792;9.164;2024-03-07T15:00:38;7.60;87.50
152;DHT22;68;48.792;9.164;2024-03-07T15:03:09;7.60;86.60
152;DHT22;68;48.792;9.164;2024-03-07T15:05:37;7.50;87.30
152;DHT22;68;48.792;9.164;2024-03-07T15:08:04;7.70;87.60
152;DHT22;68;48.792;9.164;2024-03-07T15:10:33;7.60;86.30
152;DHT22;68;48.792;9.164;2024-03-07T15:13:01;7.80;87.10
152;DHT22;68;48.792;9.164;2024-03-07T15:15:28;7.80;86.10
152;DHT22;68;48.792;9.164;2024-03-07T15:17:57;7.70;85.60
152;DHT22;68;48.792;9.164;2024-03-07T15:20:25;7.70;86.60
152;DHT22;68;48.792;9.164;2024-03-07T15:22:56;7.60;86.60
152;DHT22;68;48.792;9.164;2024-03-07T15:25:23;7.60;87.30
152;DHT22;68;48.792;9.164;2024-03-07T15:27:51;7.70;87.60
152;DHT22;68;48.792;9.164;2024-03-07T15:30:19;7.70;86.70
152;DHT22;68;48.792;9.164;2024-03-07T15:32:47;7.80;86.00
152;DHT22;68;48.792;9.164;2024-03-07T15:35:15;7.70;85.70
152;DHT22;68;48.792;9.164;2024-03-07T15:37:45;7.70;85.20
152;DHT22;68;48.792;9.164;2024-03-07T15:40:15;7.80;85.70
152;DHT22;68;48.792;9.164;2024-03-07T15:42:43;8.30;85.40
152;DHT22;68;48.792;9.164;2024-03-07T15:45:13;8.20;84.80
152;DHT22;68;48.792;9.164;2024-03-07T15:47:45;7.90;85.70
152;DHT22;68;48.792;9.164;2024-03-07T15:50:12;8.00;85.70
152;DHT22;68;48.792;9.164;2024-03-07T15:52:39;8.20;84.40
152;DHT22;68;48.792;9.164;2024-03-07T15:55:08;8.00;84.50
152;DHT22;68;48.792;9.164;2024-03-07T15:57:43;8.00;83.70
152;DHT22;68;48.792;9.164;2024-03-07T16:00:13;7.90;84.80
152;DHT22;68;48.792;9.164;2024-03-07T16:02:51;8.10;83.40
152;DHT22;68;48.792;9.164;2024-03-07T16:05:18;8.30;83.50
152;DHT22;68;48.792;9.164;2024-03-07T16:07:45;8.10;83.00
152;DHT22;68;48.792;9.164;2024-03-07T16:10:13;7.90;83.90
152;DHT22;68;48.792;9.164;2024-03-07T16:12:40;7.70;84.60
152;DHT22;68;48.792;9.164;2024-03-07T16:15:08;7.60;85.10
152;DHT22;68;48.792;9.164;2024-03-07T16:17:35;7.60;85.30
152;DHT22;68;48.792;9.164;2024-03-07T16:20:03;7.50;85.60
152;DHT22;68;48.792;9.164;2024-03-07T16:22:31;7.50;84.80
152;DHT22;68;48.792;9.164;2024-03-07T16:24:58;7.50;84.90
152;DHT22;68;48.792;9.164;2024-03-07T16:27:27;7.60;84.20
152;DHT22;68;48.792;9.164;2024-03-07T16:29:55;7.60;83.80
152;DHT22;68;48.792;9.164;2024-03-07T16:32:21;7.50;83.50
152;DHT22;68;48.792;9.164;2024-03-07T16:34:49;7.70;83.60
152;DHT22;68;48.792;9.164;2024-03-07T16:37:16;7.70;83.20
152;DHT22;68;48.792;9.164;2024-03-07T16:39:42;7.80;84.00
152;DHT22;68;48.792;9.164;2024-03-07T16:42:09;8.00;84.20
152;DHT22;68;48.792;9.164;2024-03-07T16:44:37;7.70;83.30
152;DHT22;68;48.792;9.164;2024-03-07T16:47:04;7.60;84.30
152;DHT22;68;48.792;9.164;2024-03-07T16:49:37;7.50;84.50
152;DHT22;68;48.792;9.164;2024-03-07T16:52:04;7.40;86.60
152;DHT22;68;48.792;9.164;2024-03-07T16:54:31;7.30;85.60
152;DHT22;68;48.792;9.164;2024-03-07T16:57:00;7.30;86.20
152;DHT22;68;48.792;9.164;2024-03-07T16:59:27;7.30;86.20
152;DHT22;68;48.792;9.164;2024-03-07T17:01:56;7.50;85.70
152;DHT22;68;48.792;9.164;2024-03-07T17:04:23;7.20;88.00
152;DHT22;68;48.792;9.164;2024-03-07T17:06:50;7.20;87.10
152;DHT22;68;48.792;9.164;2024-03-07T17:09:17;7.40;86.40
152;DHT22;68;48.792;9.164;2024-03-07T17:11:45;7.40;86.00
152;DHT22;68;48.792;9.164;2024-03-07T17:14:12;7.40;86.10
152;DHT22;68;48.792;9.164;2024-03-07T17:16:39;7.30;84.80
152;DHT22;68;48.792;9.164;2024-03-07T17:19:09;7.30;85.30
152;DHT22;68;48.792;9.164;2024-03-07T17:21:36;7.30;85.30
152;DHT22;68;48.792;9.164;2024-03-07T17:24:03;7.30;85.30
152;DHT22;68;48.792;9.164;2024-03-07T17:26:30;7.50;85.60
152;DHT22;68;48.792;9.164;2024-03-07T17:28:57;7.40;85.50
152;DHT22;68;48.792;9.164;2024-03-07T17:31:24;7.30;85.70